Time;durP1;ratioP1;P1;durP2;ratioP2;P2;SDS_P1;SDS_P2;PMS_P1;PMS_P2;Temp;Humidity;BMP_temperature;BMP_pressure;BME280_temperature;BME280_humidity;BME280_pressure;Samples;Min_cycle;Max_cycle;Signal;HPM_P1;HPM_P2
2022/07/05 00:00:16;;;;;;;6.95;4.32;;;;;;;;;;4977102;28;20166;-63
2022/07/05 00:02:42;;;;;;;7.25;4.95;;;;;;;;;;4959052;28;20046;-63
2022/07/05 00:05:09;;;;;;;6.40;4.40;;;;;;;;;;4977329;28;20118;-63
2022/07/05 00:07:35;;;;;;;6.57;4.40;;;;;;;;;;4978918;28;20444;-63
2022/07/05 00:10:01;;;;;;;6.28;4.90;;;;;;;;;;4962709;28;20049;-63
2022/07/05 00:12:31;;;;;;;6.30;4.45;;;;;;;;;;4976247;28;20347;-63
2022/07/05 00:14:58;;;;;;;7.13;5.03;;;;;;;;;;4969496;28;20047;-63
2022/07/05 00:17:24;;;;;;;8.35;4.60;;;;;;;;;;4974400;28;20053;-63
2022/07/05 00:19:50;;;;;;;5.97;5.05;;;;;;;;;;4970963;28;20046;-63
2022/07/05 00:22:16;;;;;;;7.05;4.80;;;;;;;;;;4971783;28;21046;-63
2022/07/05 00:24:42;;;;;;;6.50;4.78;;;;;;;;;;5039483;28;20406;-63
2022/07/05 00:27:08;;;;;;;9.70;5.25;;;;;;;;;;4971322;28;20135;-63
2022/07/05 00:29:35;;;;;;;7.97;5.10;;;;;;;;;;5033604;28;21031;-63
2022/07/05 00:32:01;;;;;;;8.95;4.95;;;;;;;;;;4970067;28;20050;-63
2022/07/05 00:34:27;;;;;;;11.05;5.03;;;;;;;;;;4977958;28;20103;-63
2022/07/05 00:36:53;;;;;;;8.00;4.97;;;;;;;;;;4978019;28;20061;-63
2022/07/05 00:39:19;;;;;;;11.93;4.90;;;;;;;;;;4972444;28;20052;-63
2022/07/05 00:41:45;;;;;;;7.18;5.25;;;;;;;;;;4962098;28;20046;-63
2022/07/05 00:44:14;;;;;;;8.48;5.95;;;;;;;;;;4961702;28;20046;-64
2022/07/05 00:46:40;;;;;;;7.95;4.82;;;;;;;;;;4962348;28;20065;-64
2022/07/05 00:49:06;;;;;;;9.45;4.85;;;;;;;;;;4980111;28;20070;-63
2022/07/05 00:51:33;;;;;;;11.02;5.32;;;;;;;;;;4978895;28;20061;-63
2022/07/05 00:54:00;;;;;;;8.32;4.53;;;;;;;;;;4978160;28;20513;-63
2022/07/05 00:56:26;;;;;;;8.57;5.25;;;;;;;;;;4974732;28;20099;-63
2022/07/05 00:58:53;;;;;;;7.13;5.32;;;;;;;;;;4962568;28;20221;-63
2022/07/05 01:01:19;;;;;;;7.72;5.07;;;;;;;;;;4980346;28;20047;-63
2022/07/05 01:03:46;;;;;;;10.35;5.20;;;;;;;;;;4980346;28;20050;-63
2022/07/05 01:06:12;;;;;;;9.48;5.68;;;;;;;;;;4986306;28;20050;-63
2022/07/05 01:08:40;;;;;;;9.88;5.78;;;;;;;;;;4983313;28;20050;-63
2022/07/05 01:11:06;;;;;;;9.40;5.97;;;;;;;;;;4964141;28;20042;-63
2022/07/05 01:13:33;;;;;;;9.77;5.47;;;;;;;;;;4964934;28;20147;-63
2022/07/05 01:16:00;;;;;;;10.07;5.80;;;;;;;;;;4978851;28;20049;-66
2022/07/05 01:18:26;;;;;;;9.23;5.28;;;;;;;;;;4980759;28;20174;-64
2022/07/05 01:20:53;;;;;;;7.07;5.88;;;;;;;;;;4983665;28;20078;-63
2022/07/05 01:23:19;;;;;;;8.45;6.10;;;;;;;;;;4981116;28;20042;-63
2022/07/05 01:25:47;;;;;;;8.55;6.03;;;;;;;;;;4985129;28;20043;-63
2022/07/05 01:28:13;;;;;;;9.45;6.20;;;;;;;;;;4986349;28;20104;-64
2022/07/05 01:30:40;;;;;;;12.73;6.35;;;;;;;;;;4968789;28;20042;-63
2022/07/05 01:33:07;;;;;;;12.82;6.20;;;;;;;;;;4986161;28;20034;-63
2022/07/05 01:35:34;;;;;;;12.00;6.82;;;;;;;;;;4987828;28;20049;-63
2022/07/05 01:38:00;;;;;;;7.85;6.32;;;;;;;;;;4973985;28;20080;-63
2022/07/05 01:40:26;;;;;;;11.75;6.85;;;;;;;;;;4960989;28;20073;-63
2022/07/05 01:42:53;;;;;;;7.72;5.65;;;;;;;;;;4945940;28;20073;-63
2022/07/05 01:48:05;;;;;;;8.82;6.72;;;;;;;;;;4979084;28;20412;-63
2022/07/05 01:50:32;;;;;;;9.90;6.50;;;;;;;;;;4979934;28;20576;-63
2022/07/05 01:53:01;;;;;;;16.45;7.00;;;;;;;;;;4981934;28;20129;-63
2022/07/05 01:55:27;;;;;;;13.23;7.05;;;;;;;;;;4980747;28;21588;-63
2022/07/05 01:57:53;;;;;;;7.50;6.70;;;;;;;;;;4980560;28;20151;-63
2022/07/05 02:00:20;;;;;;;8.20;6.05;;;;;;;;;;4965038;28;20488;-63
2022/07/05 02:02:46;;;;;;;9.85;7.03;;;;;;;;;;4972754;28;20076;-63
2022/07/05 02:05:13;;;;;;;6.93;5.72;;;;;;;;;;4976288;28;20090;-63
2022/07/05 02:07:47;;;;;;;8.35;6.03;;;;;;;;;;4978215;28;20045;-63
2022/07/05 02:10:13;;;;;;;7.40;6.03;;;;;;;;;;4977973;28;20051;-63
2022/07/05 02:12:39;;;;;;;6.72;6.03;;;;;;;;;;4947852;28;20059;-63
2022/07/05 02:15:06;;;;;;;8.43;6.30;;;;;;;;;;4959620;28;20054;-63
2022/07/05 02:17:32;;;;;;;9.52;6.65;;;;;;;;;;4974432;28;20051;-63
2022/07/05 02:19:59;;;;;;;7.68;6.60;;;;;;;;;;4982701;28;20161;-63
2022/07/05 02:22:25;;;;;;;7.70;6.18;;;;;;;;;;4963200;28;20747;-63
2022/07/05 02:24:52;;;;;;;7.32;5.90;;;;;;;;;;4975803;28;20078;-63
2022/07/05 02:27:18;;;;;;;9.73;5.90;;;;;;;;;;4979434;28;20409;-63
2022/07/05 02:29:44;;;;;;;11.70;7.68;;;;;;;;;;4982104;28;20043;-63
2022/07/05 02:32:10;;;;;;;7.55;6.07;;;;;;;;;;4976143;28;20129;-63
2022/07/05 02:34:36;;;;;;;10.73;7.75;;;;;;;;;;4978710;28;20038;-63
2022/07/05 02:37:03;;;;;;;9.20;7.53;;;;;;;;;;4964162;28;20103;-63
2022/07/05 02:39:29;;;;;;;40.15;7.50;;;;;;;;;;4964421;28;20125;-63
2022/07/05 02:41:55;;;;;;;9.10;6.45;;;;;;;;;;4980189;28;20161;-63
2022/07/05 02:44:21;;;;;;;13.32;6.50;;;;;;;;;;4971310;28;20047;-64
2022/07/05 02:46:47;;;;;;;11.82;6.60;;;;;;;;;;4971237;28;20572;-63
2022/07/05 02:49:14;;;;;;;10.00;6.78;;;;;;;;;;4971888;28;20244;-63
2022/07/05 02:51:41;;;;;;;11.45;5.82;;;;;;;;;;4972273;28;20058;-63
2022/07/05 02:54:07;;;;;;;10.07;6.88;;;;;;;;;;4970885;28;20088;-63
2022/07/05 02:56:33;;;;;;;10.23;6.30;;;;;;;;;;4975153;28;20066;-63
2022/07/05 02:58:59;;;;;;;9.43;7.13;;;;;;;;;;4981605;28;20378;-63
2022/07/05 03:01:26;;;;;;;11.90;6.53;;;;;;;;;;4978593;28;20047;-63
2022/07/05 03:03:52;;;;;;;7.80;5.47;;;;;;;;;;4973542;28;20472;-63
2022/07/05 03:06:18;;;;;;;12.52;6.28;;;;;;;;;;4976822;28;20043;-63
2022/07/05 03:08:44;;;;;;;19.73;7.07;;;;;;;;;;4979578;28;20049;-63
2022/07/05 03:11:10;;;;;;;11.35;6.20;;;;;;;;;;4984027;28;20125;-63
2022/07/05 03:13:37;;;;;;;11.98;5.45;;;;;;;;;;4985716;28;20034;-63
2022/07/05 03:16:03;;;;;;;8.30;6.22;;;;;;;;;;4983118;28;20142;-63
2022/07/05 03:18:29;;;;;;;10.73;5.88;;;;;;;;;;4983673;28;20421;-63
2022/07/05 03:20:55;;;;;;;10.68;7.40;;;;;;;;;;4987712;28;20046;-63
2022/07/05 03:23:21;;;;;;;8.82;6.15;;;;;;;;;;4966336;28;20074;-63
2022/07/05 03:25:47;;;;;;;8.00;6.22;;;;;;;;;;4968008;28;20080;-64
2022/07/05 03:28:14;;;;;;;9.77;6.13;;;;;;;;;;4984422;28;20077;-64
2022/07/05 03:30:40;;;;;;;11.80;6.05;;;;;;;;;;4982164;28;20049;-63
2022/07/05 03:33:06;;;;;;;9.27;6.45;;;;;;;;;;4984626;28;20049;-63
2022/07/05 03:35:32;;;;;;;10.50;6.65;;;;;;;;;;4982963;28;20165;-63
2022/07/05 03:37:58;;;;;;;10.35;6.28;;;;;;;;;;4965847;28;20125;-63
2022/07/05 03:40:24;;;;;;;8.80;5.35;;;;;;;;;;4985245;28;20074;-63
2022/07/05 03:42:51;;;;;;;8.38;5.97;;;;;;;;;;4983434;28;20387;-64
2022/07/05 03:45:17;;;;;;;10.98;6.57;;;;;;;;;;4970641;28;20042;-63
2022/07/05 03:47:43;;;;;;;12.88;6.60;;;;;;;;;;4976608;28;20118;-63
2022/07/05 03:50:09;;;;;;;9.90;6.18;;;;;;;;;;4979036;28;20065;-64
2022/07/05 03:52:35;;;;;;;8.98;6.15;;;;;;;;;;4978683;28;20072;-63
2022/07/05 03:55:02;;;;;;;8.27;6.45;;;;;;;;;;4980693;28;20127;-64
2022/07/05 03:57:28;;;;;;;8.77;6.30;;;;;;;;;;4978977;28;20100;-63
2022/07/05 03:59:54;;;;;;;8.30;6.18;;;;;;;;;;4979229;28;20054;-63
2022/07/05 04:02:20;;;;;;;34.00;6.32;;;;;;;;;;4969637;28;20038;-64
2022/07/05 04:04:47;;;;;;;8.18;5.95;;;;;;;;;;4983310;28;20103;-64
2022/07/05 04:07:13;;;;;;;9.43;6.15;;;;;;;;;;4969675;28;20556;-64
2022/07/05 04:09:39;;;;;;;9.50;5.75;;;;;;;;;;4978393;28;20047;-63
2022/07/05 04:12:05;;;;;;;7.35;5.13;;;;;;;;;;4959373;28;20050;-63
2022/07/05 04:14:32;;;;;;;6.65;5.07;;;;;;;;;;4979836;28;20111;-64
2022/07/05 04:16:58;;;;;;;8.52;5.00;;;;;;;;;;4959884;28;20057;-63
2022/07/05 04:19:24;;;;;;;5.60;4.57;;;;;;;;;;4972020;28;20050;-63
2022/07/05 04:21:50;;;;;;;8.25;4.70;;;;;;;;;;4975996;28;20046;-64
2022/07/05 04:24:16;;;;;;;7.05;5.13;;;;;;;;;;4979246;28;20085;-63
2022/07/05 04:26:43;;;;;;;5.93;4.15;;;;;;;;;;4959158;28;20180;-64
2022/07/05 04:29:09;;;;;;;8.18;4.70;;;;;;;;;;4977372;28;20512;-64
2022/07/05 04:31:35;;;;;;;10.23;4.80;;;;;;;;;;4976579;28;21469;-63
2022/07/05 04:34:01;;;;;;;8.13;4.38;;;;;;;;;;4974040;28;20054;-64
2022/07/05 04:36:28;;;;;;;11.70;4.95;;;;;;;;;;4972289;28;21284;-64
2022/07/05 04:38:54;;;;;;;9.60;5.15;;;;;;;;;;4974109;28;20050;-64
2022/07/05 04:41:20;;;;;;;8.70;4.70;;;;;;;;;;4975177;28;20047;-64
2022/07/05 04:43:46;;;;;;;9.18;4.82;;;;;;;;;;4973468;28;20087;-64
2022/07/05 04:46:13;;;;;;;8.32;4.82;;;;;;;;;;4974219;28;20053;-64
2022/07/05 04:48:39;;;;;;;7.00;4.60;;;;;;;;;;4975624;28;20209;-64
2022/07/05 04:51:05;;;;;;;8.68;5.20;;;;;;;;;;4976453;28;20547;-64
2022/07/05 04:53:31;;;;;;;7.38;4.35;;;;;;;;;;4960236;28;20089;-64
2022/07/05 04:55:57;;;;;;;8.95;4.07;;;;;;;;;;4974230;28;21974;-64
2022/07/05 04:58:23;;;;;;;8.57;4.43;;;;;;;;;;4971156;28;20042;-64
2022/07/05 05:00:50;;;;;;;8.23;3.75;;;;;;;;;;4973592;28;20130;-64
2022/07/05 05:03:16;;;;;;;5.10;3.42;;;;;;;;;;4980910;28;20046;-66
2022/07/05 05:05:42;;;;;;;8.88;3.70;;;;;;;;;;4973744;28;20127;-64
2022/07/05 05:08:08;;;;;;;9.18;3.90;;;;;;;;;;4975934;28;20398;-63
2022/07/05 05:10:34;;;;;;;6.65;3.42;;;;;;;;;;4982037;28;20030;-63
2022/07/05 05:13:01;;;;;;;8.77;3.80;;;;;;;;;;4965686;28;20049;-63
2022/07/05 05:15:27;;;;;;;8.55;3.47;;;;;;;;;;4984264;28;21124;-64
2022/07/05 05:17:53;;;;;;;7.30;3.15;;;;;;;;;;4964008;28;20066;-63
2022/07/05 05:20:20;;;;;;;9.90;3.42;;;;;;;;;;4983250;28;20046;-64
2022/07/05 05:22:47;;;;;;;6.78;3.03;;;;;;;;;;4982004;28;20042;-64
2022/07/05 05:25:13;;;;;;;6.53;3.75;;;;;;;;;;4972041;28;20042;-64
2022/07/05 05:27:42;;;;;;;4.63;2.40;;;;;;;;;;4972626;28;20101;-63
2022/07/05 05:30:08;;;;;;;5.15;2.60;;;;;;;;;;4973347;28;20141;-63
2022/07/05 05:32:34;;;;;;;7.85;3.20;;;;;;;;;;4984175;28;20469;-63
2022/07/05 05:35:00;;;;;;;4.65;1.92;;;;;;;;;;4982184;28;20127;-64
2022/07/05 05:37:27;;;;;;;8.43;2.38;;;;;;;;;;4966359;28;20060;-64
2022/07/05 05:39:53;;;;;;;9.55;2.80;;;;;;;;;;4977545;28;20477;-64
2022/07/05 05:42:19;;;;;;;5.63;2.03;;;;;;;;;;4974870;28;21336;-64
2022/07/05 05:44:45;;;;;;;7.15;2.97;;;;;;;;;;4973711;28;20080;-64
2022/07/05 05:47:11;;;;;;;8.05;2.30;;;;;;;;;;4982862;28;20370;-64
2022/07/05 05:49:37;;;;;;;9.32;2.40;;;;;;;;;;4962518;28;20031;-64
2022/07/05 05:52:04;;;;;;;6.20;1.75;;;;;;;;;;4981233;28;20112;-65
2022/07/05 05:54:30;;;;;;;7.30;1.75;;;;;;;;;;4962631;28;20261;-64
2022/07/05 05:56:56;;;;;;;6.20;1.70;;;;;;;;;;4978086;28;20047;-64
2022/07/05 05:59:22;;;;;;;6.93;2.00;;;;;;;;;;4977547;28;20058;-64
2022/07/05 06:01:48;;;;;;;6.45;1.50;;;;;;;;;;4935626;28;20087;-64
2022/07/05 06:04:15;;;;;;;8.30;1.50;;;;;;;;;;4971333;28;20104;-65
2022/07/05 06:06:41;;;;;;;9.13;1.70;;;;;;;;;;4965272;28;20046;-63
2022/07/05 06:09:08;;;;;;;10.15;2.00;;;;;;;;;;4960826;28;20497;-64
2022/07/05 06:11:34;;;;;;;12.43;2.10;;;;;;;;;;4977658;28;20145;-64
2022/07/05 06:14:00;;;;;;;9.20;1.40;;;;;;;;;;4968696;28;20043;-73
2022/07/05 06:16:26;;;;;;;8.45;1.77;;;;;;;;;;4973989;28;20040;-65
2022/07/05 06:18:52;;;;;;;10.35;1.60;;;;;;;;;;4965021;28;20066;-66
2022/07/05 06:21:19;;;;;;;7.80;1.25;;;;;;;;;;4972108;28;20062;-65
2022/07/05 06:23:45;;;;;;;9.98;1.70;;;;;;;;;;4985260;28;20504;-65
2022/07/05 06:26:11;;;;;;;10.32;1.13;;;;;;;;;;4978300;28;20335;-65
2022/07/05 06:28:37;;;;;;;5.88;1.30;;;;;;;;;;4968365;28;20046;-65
2022/07/05 06:31:03;;;;;;;13.80;1.70;;;;;;;;;;4981444;28;20039;-65
2022/07/05 06:33:30;;;;;;;4.60;0.98;;;;;;;;;;4961902;28;20075;-65
2022/07/05 06:35:56;;;;;;;11.80;1.50;;;;;;;;;;4975460;28;20060;-65
2022/07/05 06:38:22;;;;;;;9.40;1.83;;;;;;;;;;4965424;28;20054;-65
2022/07/05 06:40:48;;;;;;;10.50;2.05;;;;;;;;;;4962754;28;20050;-65
2022/07/05 06:43:15;;;;;;;11.23;1.98;;;;;;;;;;4978823;28;20501;-65
2022/07/05 06:45:41;;;;;;;8.23;1.20;;;;;;;;;;4966014;28;20092;-65
2022/07/05 06:48:08;;;;;;;5.95;1.50;;;;;;;;;;4974583;28;20131;-65
2022/07/05 06:50:36;;;;;;;6.13;1.00;;;;;;;;;;4981810;28;20107;-65
2022/07/05 06:53:02;;;;;;;6.57;1.33;;;;;;;;;;4967252;28;20062;-65
2022/07/05 06:55:29;;;;;;;6.47;0.88;;;;;;;;;;4984924;28;20042;-65
2022/07/05 06:57:59;;;;;;;7.25;1.10;;;;;;;;;;4983525;28;20092;-65
2022/07/05 07:00:25;;;;;;;8.15;1.65;;;;;;;;;;4986164;28;20051;-65
2022/07/05 07:02:52;;;;;;;7.32;1.27;;;;;;;;;;4976060;28;20110;-65
2022/07/05 07:05:18;;;;;;;6.32;1.00;;;;;;;;;;4971917;28;20054;-65
2022/07/05 07:10:29;;;;;;;10.05;1.40;;;;;;;;;;4983381;28;20482;-65
2022/07/05 07:12:55;;;;;;;4.30;1.00;;;;;;;;;;4987028;28;20074;-65
2022/07/05 07:15:21;;;;;;;6.35;1.23;;;;;;;;;;4966314;28;20058;-65
2022/07/05 07:17:47;;;;;;;4.57;1.00;;;;;;;;;;4964341;28;20140;-65
2022/07/05 07:20:14;;;;;;;8.18;1.10;;;;;;;;;;4980762;28;20129;-65
2022/07/05 07:22:40;;;;;;;4.10;0.90;;;;;;;;;;4962812;28;20133;-65
2022/07/05 07:25:08;;;;;;;5.90;1.10;;;;;;;;;;4964004;28;20045;-65
2022/07/05 07:27:42;;;;;;;5.43;0.90;;;;;;;;;;4963820;28;20046;-65
2022/07/05 07:30:09;;;;;;;4.93;1.17;;;;;;;;;;4962611;28;20394;-65
2022/07/05 07:32:35;;;;;;;4.35;0.90;;;;;;;;;;4979642;28;20412;-65
2022/07/05 07:35:01;;;;;;;4.35;1.00;;;;;;;;;;4978658;28;20106;-65
2022/07/05 07:37:27;;;;;;;4.53;0.95;;;;;;;;;;4973163;28;20045;-65
2022/07/05 07:39:53;;;;;;;6.63;1.55;;;;;;;;;;4964106;28;20049;-65
2022/07/05 07:42:19;;;;;;;4.13;1.13;;;;;;;;;;4961843;28;20112;-65
2022/07/05 07:44:45;;;;;;;6.10;1.10;;;;;;;;;;4979113;28;20047;-65
2022/07/05 07:47:12;;;;;;;8.30;0.80;;;;;;;;;;4960531;28;20502;-64
2022/07/05 07:49:38;;;;;;;8.30;0.93;;;;;;;;;;4963584;28;20046;-66
2022/07/05 07:52:04;;;;;;;7.57;1.13;;;;;;;;;;4960166;28;20082;-64
2022/07/05 07:54:30;;;;;;;4.57;0.93;;;;;;;;;;4964297;28;20108;-64
2022/07/05 07:56:57;;;;;;;4.75;0.80;;;;;;;;;;4966435;28;20644;-64
2022/07/05 07:59:23;;;;;;;21.17;1.20;;;;;;;;;;4944069;28;20050;-64
2022/07/05 08:01:49;;;;;;;5.22;1.20;;;;;;;;;;4965647;28;20115;-64
2022/07/05 08:04:15;;;;;;;3.65;1.05;;;;;;;;;;4963624;28;20057;-65
2022/07/05 08:06:42;;;;;;;3.70;1.27;;;;;;;;;;4963228;28;20125;-64
2022/07/05 08:09:08;;;;;;;4.22;0.90;;;;;;;;;;4962972;28;20076;-64
2022/07/05 08:11:35;;;;;;;5.40;0.93;;;;;;;;;;4962782;28;20058;-64
2022/07/05 08:14:01;;;;;;;8.43;1.52;;;;;;;;;;4960789;28;20061;-64
2022/07/05 08:16:27;;;;;;;4.70;1.02;;;;;;;;;;4968248;28;20039;-64
2022/07/05 08:21:38;;;;;;;7.82;0.88;;;;;;;;;;5022629;28;20088;-64
2022/07/05 08:24:06;;;;;;;6.60;1.13;;;;;;;;;;5022585;28;20114;-64
2022/07/05 08:26:33;;;;;;;7.22;1.15;;;;;;;;;;5024589;28;20440;-64
2022/07/05 08:29:01;;;;;;;4.25;0.80;;;;;;;;;;5026481;28;20037;-64
2022/07/05 08:31:27;;;;;;;5.90;1.05;;;;;;;;;;5007486;28;20045;-64
2022/07/05 08:33:53;;;;;;;3.63;0.95;;;;;;;;;;5039541;28;20044;-65
2022/07/05 08:36:19;;;;;;;5.97;1.65;;;;;;;;;;5036641;28;20052;-65
2022/07/05 08:38:46;;;;;;;3.88;0.70;;;;;;;;;;5034468;28;20555;-64
2022/07/05 08:41:12;;;;;;;3.90;1.02;;;;;;;;;;5038671;28;20043;-64
2022/07/05 08:43:42;;;;;;;5.22;0.90;;;;;;;;;;5039268;28;20377;-64
2022/07/05 08:46:10;;;;;;;7.18;1.27;;;;;;;;;;5040753;28;20040;-64
2022/07/05 08:48:43;;;;;;;10.57;2.38;;;;;;;;;;5042401;28;20055;-64
2022/07/05 08:51:10;;;;;;;4.25;0.75;;;;;;;;;;5044462;28;20131;-64
2022/07/05 08:53:38;;;;;;;5.10;0.95;;;;;;;;;;5042184;28;20043;-64
2022/07/05 08:56:05;;;;;;;6.32;1.27;;;;;;;;;;5042092;28;20051;-64
2022/07/05 08:58:31;;;;;;;3.55;0.70;;;;;;;;;;5044146;28;20193;-64
2022/07/05 09:00:58;;;;;;;10.93;1.23;;;;;;;;;;5038553;28;20040;-64
2022/07/05 09:03:26;;;;;;;5.18;1.27;;;;;;;;;;5042832;28;20147;-64
2022/07/05 09:05:56;;;;;;;5.22;1.10;;;;;;;;;;5043373;28;20057;-64
2022/07/05 09:08:22;;;;;;;6.05;1.50;;;;;;;;;;5040689;28;20501;-64
2022/07/05 09:10:49;;;;;;;4.57;1.50;;;;;;;;;;5041404;28;20655;-64
2022/07/05 09:13:15;;;;;;;3.90;0.95;;;;;;;;;;5040304;28;20056;-64
2022/07/05 09:15:41;;;;;;;5.68;0.90;;;;;;;;;;5039709;28;20497;-64
2022/07/05 09:18:10;;;;;;;6.13;1.13;;;;;;;;;;5008102;28;20086;-64
2022/07/05 09:20:36;;;;;;;3.40;1.05;;;;;;;;;;4979894;28;20074;-64
2022/07/05 09:23:02;;;;;;;4.78;0.98;;;;;;;;;;4981065;28;20053;-63
2022/07/05 09:25:30;;;;;;;6.00;1.27;;;;;;;;;;4978855;28;20042;-64
2022/07/05 09:28:01;;;;;;;5.03;1.27;;;;;;;;;;4961915;28;20177;-64
2022/07/05 09:30:30;;;;;;;4.85;1.20;;;;;;;;;;4980117;28;20046;-64
2022/07/05 09:33:01;;;;;;;3.90;1.17;;;;;;;;;;4979620;28;20047;-64
2022/07/05 09:35:28;;;;;;;5.55;1.73;;;;;;;;;;4980023;28;20046;-64
2022/07/05 09:37:54;;;;;;;3.42;0.95;;;;;;;;;;4980345;28;20049;-64
2022/07/05 09:40:22;;;;;;;4.28;1.15;;;;;;;;;;4981580;28;20397;-64
2022/07/05 09:42:48;;;;;;;6.60;1.40;;;;;;;;;;4980229;28;20055;-64
2022/07/05 09:45:22;;;;;;;6.30;1.23;;;;;;;;;;4982927;28;20046;-63
2022/07/05 09:47:48;;;;;;;8.00;1.92;;;;;;;;;;4969120;28;20064;-64
2022/07/05 09:50:14;;;;;;;3.17;0.70;;;;;;;;;;4968718;28;20042;-64
2022/07/05 09:52:41;;;;;;;6.38;1.02;;;;;;;;;;4986632;28;20553;-64
2022/07/05 09:55:09;;;;;;;4.40;1.15;;;;;;;;;;4987537;28;20389;-64
2022/07/05 09:57:37;;;;;;;3.95;0.85;;;;;;;;;;4985609;28;20058;-64
2022/07/05 10:00:05;;;;;;;8.95;1.02;;;;;;;;;;4986729;28;20442;-65
2022/07/05 10:02:41;;;;;;;5.72;1.38;;;;;;;;;;4986541;28;20042;-64
2022/07/05 10:05:11;;;;;;;3.35;1.00;;;;;;;;;;4986142;28;20107;-64
2022/07/05 10:07:40;;;;;;;4.85;1.02;;;;;;;;;;4986322;28;20042;-64
2022/07/05 10:10:07;;;;;;;3.22;0.88;;;;;;;;;;4986710;28;20053;-64
2022/07/05 10:12:34;;;;;;;4.07;0.90;;;;;;;;;;4985343;28;20050;-64
2022/07/05 10:15:00;;;;;;;5.03;0.98;;;;;;;;;;4964874;28;20043;-64
2022/07/05 10:17:27;;;;;;;5.05;1.25;;;;;;;;;;4976848;28;20056;-65
2022/07/05 10:19:55;;;;;;;6.65;1.17;;;;;;;;;;4980640;28;20379;-64
2022/07/05 10:22:21;;;;;;;5.43;1.00;;;;;;;;;;4977388;28;20046;-65
2022/07/05 10:24:47;;;;;;;4.88;0.73;;;;;;;;;;4960693;28;20053;-64
2022/07/05 10:27:14;;;;;;;4.72;0.70;;;;;;;;;;4981100;28;20053;-64
2022/07/05 10:29:40;;;;;;;6.30;0.90;;;;;;;;;;4979978;28;20913;-64
2022/07/05 10:32:10;;;;;;;4.57;1.02;;;;;;;;;;4962131;28;20054;-65
2022/07/05 10:34:36;;;;;;;6.35;1.40;;;;;;;;;;4980682;28;20129;-64
2022/07/05 10:37:03;;;;;;;4.53;0.90;;;;;;;;;;4978283;28;20679;-64
2022/07/05 10:39:29;;;;;;;3.20;0.75;;;;;;;;;;4980552;28;20065;-64
2022/07/05 10:41:56;;;;;;;3.92;0.80;;;;;;;;;;4983416;28;20046;-65
2022/07/05 10:44:26;;;;;;;6.13;1.02;;;;;;;;;;4984679;28;20743;-65
2022/07/05 10:46:52;;;;;;;3.55;0.98;;;;;;;;;;4980397;28;20043;-65
2022/07/05 10:49:20;;;;;;;5.53;0.88;;;;;;;;;;4979358;28;20054;-64
2022/07/05 10:51:47;;;;;;;5.22;0.90;;;;;;;;;;4976497;28;20104;-64
2022/07/05 10:54:14;;;;;;;3.55;0.98;;;;;;;;;;4964754;28;20065;-64
2022/07/05 10:56:40;;;;;;;6.15;0.82;;;;;;;;;;4980346;28;20058;-64
2022/07/05 10:59:09;;;;;;;7.18;1.10;;;;;;;;;;4983468;28;20051;-64
2022/07/05 11:01:36;;;;;;;5.55;1.33;;;;;;;;;;4978500;28;20928;-64
2022/07/05 11:04:02;;;;;;;5.28;1.10;;;;;;;;;;4983180;28;20054;-65
2022/07/05 11:06:28;;;;;;;5.38;1.25;;;;;;;;;;4967602;28;20051;-65
2022/07/05 11:08:59;;;;;;;6.45;1.55;;;;;;;;;;4983194;28;20042;-64
2022/07/05 11:11:26;;;;;;;7.53;1.65;;;;;;;;;;4983558;28;20060;-64
2022/07/05 11:13:54;;;;;;;6.85;1.60;;;;;;;;;;4980325;28;20093;-65
2022/07/05 11:16:21;;;;;;;7.80;1.40;;;;;;;;;;4977805;28;20042;-65
2022/07/05 11:18:48;;;;;;;6.90;1.38;;;;;;;;;;4979637;28;20244;-65
2022/07/05 11:21:18;;;;;;;7.93;1.50;;;;;;;;;;4961201;28;20050;-64
2022/07/05 11:23:44;;;;;;;3.78;0.95;;;;;;;;;;4977365;28;20043;-66
2022/07/05 11:26:12;;;;;;;6.57;1.45;;;;;;;;;;4978228;28;20073;-64
2022/07/05 11:28:43;;;;;;;5.80;1.33;;;;;;;;;;4976968;28;21264;-64
2022/07/05 11:31:09;;;;;;;7.22;0.93;;;;;;;;;;4980058;28;20038;-64
2022/07/05 11:33:37;;;;;;;4.13;1.10;;;;;;;;;;4981453;28;20038;-64
2022/07/05 11:36:04;;;;;;;7.35;1.20;;;;;;;;;;4979927;28;20513;-64
2022/07/05 11:38:31;;;;;;;6.72;1.15;;;;;;;;;;4979128;28;20042;-65
2022/07/05 11:41:10;;;;;;;5.45;1.02;;;;;;;;;;4960383;28;20046;-65
2022/07/05 11:43:36;;;;;;;7.07;1.33;;;;;;;;;;4988113;28;20069;-65
2022/07/05 11:46:03;;;;;;;5.97;1.33;;;;;;;;;;4983621;28;20042;-65
2022/07/05 11:48:29;;;;;;;6.28;1.00;;;;;;;;;;4963470;28;20042;-65
2022/07/05 11:50:56;;;;;;;8.43;1.15;;;;;;;;;;4986324;28;20043;-64
2022/07/05 11:53:29;;;;;;;4.18;1.10;;;;;;;;;;4986914;28;20054;-64
2022/07/05 11:55:59;;;;;;;7.65;1.73;;;;;;;;;;4979020;28;20133;-65
2022/07/05 11:58:32;;;;;;;8.40;1.30;;;;;;;;;;4985433;28;20050;-64
2022/07/05 12:00:59;;;;;;;8.05;1.33;;;;;;;;;;4984526;28;20129;-65
2022/07/05 12:03:25;;;;;;;6.20;1.42;;;;;;;;;;4968904;28;20045;-65
2022/07/05 12:05:52;;;;;;;5.45;1.15;;;;;;;;;;4981877;28;20047;-65
2022/07/05 12:08:25;;;;;;;9.07;1.73;;;;;;;;;;4986075;28;20046;-64
2022/07/05 12:13:55;;;;;;;10.50;1.10;;;;;;;;;;4966279;28;20390;-64
2022/07/05 12:16:21;;;;;;;10.05;1.55;;;;;;;;;;4984095;28;20053;-64
2022/07/05 12:19:06;;;;;;;7.72;1.40;;;;;;;;;;4984643;28;20057;-64
2022/07/05 12:21:33;;;;;;;6.95;1.20;;;;;;;;;;4982850;28;20089;-64
2022/07/05 12:23:59;;;;;;;6.03;1.23;;;;;;;;;;4983317;28;20188;-64
2022/07/05 12:26:25;;;;;;;4.95;1.08;;;;;;;;;;4980852;28;20046;-64
2022/07/05 12:28:52;;;;;;;3.15;0.80;;;;;;;;;;4982265;28;20497;-64
2022/07/05 12:31:19;;;;;;;7.68;1.90;;;;;;;;;;4981413;28;21246;-64
2022/07/05 12:33:45;;;;;;;8.38;1.30;;;;;;;;;;4986186;28;20066;-64
2022/07/05 12:36:13;;;;;;;4.90;0.90;;;;;;;;;;4981879;28;20082;-64
2022/07/05 12:38:41;;;;;;;3.40;0.70;;;;;;;;;;4984774;28;20131;-65
2022/07/05 12:41:08;;;;;;;3.50;0.90;;;;;;;;;;4982753;28;20045;-64
2022/07/05 12:43:48;;;;;;;5.53;1.52;;;;;;;;;;4982126;28;20526;-65
2022/07/05 12:46:14;;;;;;;5.35;1.05;;;;;;;;;;4983709;28;20375;-65
2022/07/05 12:48:41;;;;;;;3.97;0.77;;;;;;;;;;4980990;28;20115;-64
2022/07/05 12:51:08;;;;;;;5.88;1.23;;;;;;;;;;4979883;28;20039;-64
2022/07/05 12:59:09;;;;;;;6.13;1.10;;;;;;;;;;4965018;28;20104;-64
2022/07/05 13:01:38;;;;;;;7.13;1.77;;;;;;;;;;4981647;28;20042;-65
2022/07/05 13:04:08;;;;;;;3.85;0.85;;;;;;;;;;4964817;28;20058;-65
2022/07/05 13:06:44;;;;;;;4.38;0.88;;;;;;;;;;4980038;28;22003;-65
2022/07/05 13:09:11;;;;;;;8.98;1.08;;;;;;;;;;4981114;28;20077;-65
2022/07/05 13:11:37;;;;;;;3.70;0.70;;;;;;;;;;4980680;28;20039;-64
2022/07/05 13:14:04;;;;;;;6.38;1.10;;;;;;;;;;4963555;28;20043;-64
2022/07/05 13:16:30;;;;;;;3.33;0.77;;;;;;;;;;4983022;28;20035;-64
2022/07/05 13:19:06;;;;;;;3.58;1.05;;;;;;;;;;4981936;28;20050;-65
2022/07/05 13:21:32;;;;;;;3.08;0.82;;;;;;;;;;4984114;28;20042;-65
2022/07/05 13:23:58;;;;;;;7.93;1.40;;;;;;;;;;4985314;28;20121;-64
2022/07/05 13:26:25;;;;;;;6.38;1.25;;;;;;;;;;4994538;28;20174;-65
2022/07/05 13:28:51;;;;;;;2.65;1.00;;;;;;;;;;4986825;28;20409;-65
2022/07/05 13:31:17;;;;;;;2.95;0.82;;;;;;;;;;4985571;28;20120;-65
2022/07/05 13:33:43;;;;;;;4.35;0.80;;;;;;;;;;4985550;28;20129;-65
2022/07/05 13:36:09;;;;;;;6.43;0.95;;;;;;;;;;4983685;28;20039;-65
2022/07/05 13:38:36;;;;;;;7.35;1.08;;;;;;;;;;4981253;28;20457;-64
2022/07/05 13:41:02;;;;;;;3.67;0.85;;;;;;;;;;4980521;28;20043;-64
2022/07/05 13:43:28;;;;;;;4.35;1.00;;;;;;;;;;4983743;28;20125;-64
2022/07/05 13:45:54;;;;;;;3.03;0.90;;;;;;;;;;4979467;28;20057;-64
2022/07/05 13:48:20;;;;;;;4.10;1.25;;;;;;;;;;4980295;28;20047;-64
2022/07/05 13:50:46;;;;;;;3.78;0.88;;;;;;;;;;4960850;28;20432;-64
2022/07/05 13:53:13;;;;;;;3.40;1.10;;;;;;;;;;4979536;28;20032;-64
2022/07/05 13:55:39;;;;;;;8.82;1.27;;;;;;;;;;4978975;28;20050;-64
2022/07/05 13:58:05;;;;;;;4.35;1.13;;;;;;;;;;4977919;28;20042;-64
2022/07/05 14:00:31;;;;;;;3.15;0.80;;;;;;;;;;4977029;28;22230;-64
2022/07/05 14:02:57;;;;;;;4.75;0.98;;;;;;;;;;4977610;28;20077;-65
2022/07/05 14:05:23;;;;;;;3.75;1.08;;;;;;;;;;4980474;28;20426;-64
2022/07/05 14:07:50;;;;;;;2.47;0.80;;;;;;;;;;4963705;28;20054;-64
2022/07/05 14:10:16;;;;;;;4.25;1.30;;;;;;;;;;4981001;28;20070;-64
2022/07/05 14:12:42;;;;;;;6.28;1.10;;;;;;;;;;4963845;28;20115;-64
2022/07/05 14:15:09;;;;;;;3.20;0.70;;;;;;;;;;4979433;28;20038;-64
2022/07/05 14:17:35;;;;;;;4.47;1.20;;;;;;;;;;4977741;28;20403;-64
2022/07/05 14:20:01;;;;;;;3.83;0.88;;;;;;;;;;4977452;28;20062;-64
2022/07/05 14:22:28;;;;;;;6.93;1.00;;;;;;;;;;4980052;28;20121;-64
2022/07/05 14:24:54;;;;;;;4.95;1.20;;;;;;;;;;4975589;28;20095;-64
2022/07/05 14:27:20;;;;;;;11.85;1.45;;;;;;;;;;4977642;28;20175;-64
2022/07/05 14:29:46;;;;;;;4.05;1.25;;;;;;;;;;4977498;28;20460;-64
2022/07/05 14:32:12;;;;;;;5.55;0.98;;;;;;;;;;4975719;28;20521;-64
2022/07/05 14:34:38;;;;;;;4.22;1.00;;;;;;;;;;4976297;28;20043;-64
2022/07/05 14:37:05;;;;;;;2.58;0.82;;;;;;;;;;4959486;28;20178;-64
2022/07/05 14:39:31;;;;;;;7.60;1.35;;;;;;;;;;4975924;28;20109;-65
2022/07/05 14:41:57;;;;;;;6.40;1.05;;;;;;;;;;4979108;28;20050;-64
2022/07/05 14:44:24;;;;;;;4.40;0.90;;;;;;;;;;4980628;28;20133;-64
2022/07/05 14:46:50;;;;;;;4.57;0.98;;;;;;;;;;4980343;28;20451;-63
2022/07/05 14:49:16;;;;;;;7.43;1.00;;;;;;;;;;4984467;28;20289;-64
2022/07/05 14:51:42;;;;;;;2.75;0.70;;;;;;;;;;4981442;28;20087;-64
2022/07/05 14:54:08;;;;;;;6.40;1.10;;;;;;;;;;4958529;28;20046;-64